KBFD/BFD METAR and TAF weather

Enter ICAO airport designator
Station Type Date Time Source
KBFD METAR 2019/12/07 09:53 UTC NOAA

KBFD 070953Z AUTO 30006KT 10SM OVC030 M04/M09 A3022 RMK AO2 SLP257 T10391089


Station Type Date Time Source
KBFD Decoded METAR 2019/12/07 09:53 UTC NOAA

BRADFORD REGIONAL AIRPORT, PA, United States (KBFD) 41-48N 078-38W 647M
Dec 07, 2019 - 04:53 AM EST / 2019.12.07 0953 UTC
Wind: from the WNW (300 degrees) at 7 MPH (6 KT):0
Visibility: 10 mile(s):0
Sky conditions: overcast
Temperature: 25.0 F (-3.9 C)
Windchill: 17 F (-8 C):1
Dew Point: 16.0 F (-8.9 C)
Relative Humidity: 68%
Pressure (altimeter): 30.22 in. Hg (1023 hPa)
ob: KBFD 070953Z AUTO 30006KT 10SM OVC030 M04/M09 A3022 RMK AO2 SLP257 T10391089
cycle: 10

Station Type Date Time Source
KBFD TAF 2019/12/07 09:18 UTC NOAA

TAF
AMD KBFD 070916Z 0709/0806 31008KT P6SM BKN035
FM071900 27007KT P6SM SCT030
FM080100 17006KT P6SM SCT250

Example: see airport list